createdAt,value
2023-01-22T00:00:12.576Z,0.00
2023-01-22T00:02:58.168Z,0.00
2023-01-22T00:05:43.834Z,0.00
2023-01-22T00:08:29.553Z,0.00
2023-01-22T00:11:16.303Z,0.00
2023-01-22T00:14:02.287Z,0.00
2023-01-22T00:16:47.880Z,0.10
2023-01-22T00:19:33.339Z,0.10
2023-01-22T00:22:18.809Z,0.10
2023-01-22T00:25:17.298Z,0.10
2023-01-22T00:28:02.884Z,0.20
2023-01-22T00:30:50.908Z,0.30
2023-01-22T00:33:40.762Z,0.50
2023-01-22T00:36:26.708Z,0.60
2023-01-22T00:39:12.020Z,0.80
2023-01-22T00:41:58.066Z,0.90
2023-01-22T00:44:43.269Z,1.00
2023-01-22T00:47:28.948Z,1.10
2023-01-22T00:50:15.797Z,1.10
2023-01-22T00:56:07.628Z,1.00
2023-01-22T00:58:53.292Z,1.00
2023-01-22T01:01:41.874Z,1.20
2023-01-22T01:04:28.757Z,1.30
2023-01-22T01:07:14.209Z,1.40
2023-01-22T01:10:02.396Z,1.40
2023-01-22T01:12:50.633Z,1.50
2023-01-22T01:15:38.644Z,1.60
2023-01-22T01:18:24.310Z,1.60
2023-01-22T01:21:11.948Z,1.70
2023-01-22T01:24:00.701Z,1.70
2023-01-22T01:26:46.008Z,1.80
2023-01-22T01:29:31.740Z,1.90
2023-01-22T01:32:17.088Z,2.00
2023-01-22T01:35:02.852Z,2.00
2023-01-22T01:37:51.840Z,2.10
2023-01-22T01:40:43.769Z,2.10
2023-01-22T01:43:30.903Z,2.20
2023-01-22T01:46:22.869Z,2.20
2023-01-22T01:49:19.931Z,2.30
2023-01-22T01:52:11.500Z,2.30
2023-01-22T01:54:58.597Z,2.30
2023-01-22T01:57:44.318Z,2.30
2023-01-22T02:00:35.163Z,2.40
2023-01-22T02:03:23.720Z,2.40
2023-01-22T02:06:12.292Z,2.50
2023-01-22T02:09:00.466Z,2.50
2023-01-22T02:11:46.620Z,2.50
2023-01-22T02:14:34.832Z,2.50
2023-01-22T02:17:22.218Z,2.50
2023-01-22T02:20:10.190Z,2.50
2023-01-22T02:22:55.931Z,2.60
2023-01-22T02:25:41.467Z,2.60
2023-01-22T02:28:29.257Z,2.60
2023-01-22T02:31:14.836Z,2.60
2023-01-22T02:34:05.881Z,2.70
2023-01-22T02:36:52.177Z,2.70
2023-01-22T02:39:37.600Z,2.70
2023-01-22T02:42:26.733Z,2.70
2023-01-22T02:45:15.055Z,2.70
2023-01-22T02:48:00.619Z,2.80
2023-01-22T02:50:46.679Z,2.80
2023-01-22T02:53:34.998Z,2.80
2023-01-22T02:56:21.793Z,2.80
2023-01-22T02:59:07.190Z,2.90
2023-01-22T03:01:52.741Z,2.90
2023-01-22T03:04:38.732Z,3.00
2023-01-22T03:07:23.941Z,3.00
2023-01-22T03:10:16.548Z,3.00
2023-01-22T03:13:21.497Z,3.00
2023-01-22T03:16:30.349Z,3.00
2023-01-22T03:19:34.208Z,3.10
2023-01-22T03:22:19.779Z,3.10
2023-01-22T03:25:05.252Z,3.10
2023-01-22T03:28:09.173Z,3.10
2023-01-22T03:30:56.522Z,3.20
2023-01-22T03:33:43.287Z,3.20
2023-01-22T03:36:30.036Z,3.20
2023-01-22T03:39:21.252Z,3.10
2023-01-22T03:42:12.768Z,3.00
2023-01-22T03:44:58.508Z,3.00
2023-01-22T03:47:44.652Z,3.00
2023-01-22T03:50:48.667Z,3.00
2023-01-22T03:53:37.556Z,3.00
2023-01-22T03:56:24.234Z,3.00
2023-01-22T03:59:12.875Z,3.00
2023-01-22T04:01:58.644Z,2.90
2023-01-22T04:04:44.713Z,2.80
2023-01-22T04:07:30.947Z,2.80
2023-01-22T04:10:17.737Z,2.80
2023-01-22T04:13:04.086Z,2.70
2023-01-22T04:15:49.654Z,2.80
2023-01-22T04:18:54.863Z,2.80
2023-01-22T04:21:51.442Z,2.90
2023-01-22T04:25:01.595Z,2.90
2023-01-22T04:27:47.572Z,2.80
2023-01-22T04:30:36.064Z,2.90
2023-01-22T04:33:40.729Z,2.80
2023-01-22T04:36:33.266Z,2.90
2023-01-22T04:39:19.816Z,2.90
2023-01-22T04:42:08.913Z,2.90
2023-01-22T04:45:09.635Z,2.80
2023-01-22T04:47:55.410Z,2.90
2023-01-22T04:50:41.765Z,2.90
2023-01-22T04:53:29.924Z,2.90
2023-01-22T04:56:18.508Z,2.90
2023-01-22T04:59:08.548Z,3.00
2023-01-22T05:01:54.212Z,3.00
2023-01-22T05:04:40.931Z,3.00
2023-01-22T05:07:26.816Z,3.00
2023-01-22T05:10:15.869Z,3.10
2023-01-22T05:13:05.942Z,3.10
2023-01-22T05:15:51.909Z,3.10
2023-01-22T05:18:37.696Z,3.10
2023-01-22T05:21:23.139Z,3.10
2023-01-22T05:24:12.958Z,3.20
2023-01-22T05:27:04.307Z,3.20
2023-01-22T05:29:58.561Z,3.30
2023-01-22T05:33:04.283Z,3.20
2023-01-22T05:36:01.068Z,3.30
2023-01-22T05:38:47.166Z,3.30
2023-01-22T05:41:36.608Z,3.30
2023-01-22T05:44:21.723Z,3.30
2023-01-22T05:47:13.271Z,3.40
2023-01-22T05:50:02.404Z,3.40
2023-01-22T05:52:48.079Z,3.40
2023-01-22T05:55:44.255Z,3.40
2023-01-22T05:58:38.509Z,3.40
2023-01-22T06:01:24.944Z,3.50
2023-01-22T06:04:11.899Z,3.40
2023-01-22T06:06:57.492Z,3.40
2023-01-22T06:09:44.448Z,3.40
2023-01-22T06:12:29.633Z,3.40
2023-01-22T06:15:15.281Z,3.50
2023-01-22T06:18:06.146Z,3.50
2023-01-22T06:20:52.622Z,3.40
2023-01-22T06:23:38.208Z,3.40
2023-01-22T06:26:23.693Z,3.40
2023-01-22T06:29:08.918Z,3.40
2023-01-22T06:31:58.147Z,3.40
2023-01-22T06:34:44.167Z,3.40
2023-01-22T06:37:29.329Z,3.40
2023-01-22T06:40:21.212Z,3.40
2023-01-22T06:43:17.253Z,3.40
2023-01-22T06:46:06.710Z,3.40
2023-01-22T06:49:10.189Z,3.40
2023-01-22T06:52:00.349Z,3.40
2023-01-22T06:54:47.338Z,3.40
2023-01-22T06:57:34.249Z,3.40
2023-01-22T07:00:20.849Z,3.40
2023-01-22T07:03:10.103Z,3.40
2023-01-22T07:06:03.654Z,3.40
2023-01-22T07:08:49.315Z,3.40
2023-01-22T07:11:34.669Z,3.50
2023-01-22T07:14:32.364Z,3.50
2023-01-22T07:17:24.446Z,3.40
2023-01-22T07:20:12.990Z,3.40
2023-01-22T07:23:00.183Z,3.40
2023-01-22T07:25:46.538Z,3.40
2023-01-22T07:28:32.980Z,3.40
2023-01-22T07:31:24.752Z,3.40
2023-01-22T07:34:12.659Z,3.40
2023-01-22T07:36:58.259Z,3.40
2023-01-22T07:39:43.828Z,3.40
2023-01-22T07:42:29.323Z,3.40
2023-01-22T07:45:19.554Z,3.50
2023-01-22T07:48:07.700Z,3.40
2023-01-22T07:50:53.517Z,3.50
2023-01-22T07:53:39.962Z,3.50
2023-01-22T07:56:25.698Z,3.50
2023-01-22T07:59:10.875Z,3.50
2023-01-22T08:01:57.118Z,3.50
2023-01-22T08:04:43.261Z,3.50
2023-01-22T08:07:30.384Z,3.50
2023-01-22T08:10:17.362Z,3.50
2023-01-22T08:13:06.132Z,3.50
2023-01-22T08:15:52.089Z,3.50
2023-01-22T08:18:37.732Z,3.50
2023-01-22T08:21:25.935Z,3.50
2023-01-22T08:24:20.492Z,3.50
2023-01-22T08:27:06.160Z,3.50
2023-01-22T08:29:51.772Z,3.50
2023-01-22T08:32:42.014Z,3.60
2023-01-22T08:35:27.099Z,3.70
2023-01-22T08:38:13.828Z,3.60
2023-01-22T08:41:05.503Z,3.60
2023-01-22T08:43:53.949Z,3.60
2023-01-22T08:46:40.928Z,3.60
2023-01-22T08:49:26.520Z,3.60
2023-01-22T08:52:11.773Z,3.60
2023-01-22T08:54:57.532Z,3.60
2023-01-22T08:57:51.709Z,3.60
2023-01-22T09:00:37.040Z,3.60
2023-01-22T09:03:22.733Z,3.60
2023-01-22T09:06:28.622Z,3.70
2023-01-22T09:09:13.825Z,3.70
2023-01-22T09:11:59.068Z,3.70
2023-01-22T09:14:47.550Z,3.60
2023-01-22T09:17:33.005Z,3.60
2023-01-22T09:20:19.038Z,3.60
2023-01-22T09:23:05.244Z,3.60
2023-01-22T09:25:50.741Z,3.70
2023-01-22T09:28:36.303Z,3.70
2023-01-22T09:31:21.647Z,3.80
2023-01-22T09:34:07.236Z,3.80
2023-01-22T09:36:55.833Z,3.80
2023-01-22T09:39:41.563Z,3.80
2023-01-22T09:42:32.319Z,3.90
2023-01-22T09:45:21.282Z,3.90
2023-01-22T09:48:15.260Z,3.90
2023-01-22T09:51:03.479Z,3.90
2023-01-22T09:53:58.934Z,3.90
2023-01-22T09:56:50.234Z,4.00
2023-01-22T09:59:45.321Z,4.00
2023-01-22T10:02:36.101Z,4.10
2023-01-22T10:05:44.282Z,4.20
2023-01-22T10:08:36.624Z,4.30
2023-01-22T10:11:22.022Z,4.30
2023-01-22T10:14:12.688Z,4.40
2023-01-22T10:17:01.557Z,4.50
2023-01-22T10:20:02.256Z,4.50
2023-01-22T10:22:48.976Z,4.50
2023-01-22T10:25:35.176Z,4.50
2023-01-22T10:28:32.076Z,4.50
2023-01-22T10:31:31.851Z,4.50
2023-01-22T10:34:23.667Z,4.50
2023-01-22T10:37:18.328Z,4.60
2023-01-22T10:40:03.957Z,4.80
2023-01-22T10:43:18.892Z,5.00
2023-01-22T10:46:23.776Z,5.00
2023-01-22T10:49:21.729Z,5.00
2023-01-22T10:52:23.697Z,4.90
2023-01-22T10:55:25.815Z,4.90
2023-01-22T10:58:18.193Z,4.80
2023-01-22T11:01:06.929Z,4.80
2023-01-22T11:03:55.718Z,4.80
2023-01-22T11:06:54.455Z,4.80
2023-01-22T11:09:46.612Z,4.80
2023-01-22T11:12:37.886Z,4.90
2023-01-22T11:15:32.220Z,5.00
2023-01-22T11:18:36.535Z,5.00
2023-01-22T11:21:30.806Z,5.00
2023-01-22T11:24:27.159Z,5.10
2023-01-22T11:27:49.077Z,5.20
2023-01-22T11:30:56.999Z,5.30
2023-01-22T11:34:05.936Z,5.50
2023-01-22T11:37:08.928Z,5.40
2023-01-22T11:40:21.673Z,5.50
2023-01-22T11:43:12.875Z,5.70
2023-01-22T11:46:11.192Z,5.80
2023-01-22T11:49:25.380Z,6.00
2023-01-22T11:52:31.154Z,6.30
2023-01-22T11:55:30.027Z,6.90
2023-01-22T11:58:36.919Z,7.80
2023-01-22T12:01:44.518Z,8.80
2023-01-22T12:04:41.984Z,9.90
2023-01-22T12:07:51.858Z,10.70
2023-01-22T12:10:46.659Z,11.30
2023-01-22T12:13:41.033Z,11.20
2023-01-22T12:16:50.284Z,10.80
2023-01-22T12:19:51.048Z,10.20
2023-01-22T12:23:01.551Z,9.40
2023-01-22T12:26:02.617Z,8.90
2023-01-22T12:28:50.789Z,8.40
2023-01-22T12:31:47.451Z,8.10
2023-01-22T12:34:43.134Z,7.80
2023-01-22T12:37:51.398Z,7.60
2023-01-22T12:40:58.676Z,7.20
2023-01-22T12:44:14.063Z,6.90
2023-01-22T12:47:17.071Z,6.60
2023-01-22T12:50:04.728Z,6.30
2023-01-22T12:53:04.923Z,6.00
2023-01-22T12:56:08.738Z,5.90
2023-01-22T12:58:57.720Z,5.70
2023-01-22T13:01:43.878Z,5.70
2023-01-22T13:04:33.510Z,5.60
2023-01-22T13:07:36.512Z,5.50
2023-01-22T13:10:39.231Z,5.40
2023-01-22T13:13:53.998Z,5.40
2023-01-22T13:16:40.463Z,5.30
2023-01-22T13:19:36.471Z,5.30
2023-01-22T13:22:27.594Z,5.20
2023-01-22T13:25:26.815Z,5.20
2023-01-22T13:28:19.571Z,5.10
2023-01-22T13:31:16.222Z,5.10
2023-01-22T13:34:08.956Z,5.00
2023-01-22T13:36:58.202Z,5.00
2023-01-22T13:39:46.113Z,5.00
2023-01-22T13:42:33.695Z,5.00
2023-01-22T13:45:28.712Z,5.00
2023-01-22T13:48:18.179Z,5.00
2023-01-22T13:51:06.699Z,5.00
2023-01-22T13:53:54.890Z,5.00
2023-01-22T13:56:40.860Z,5.00
2023-01-22T13:59:35.007Z,5.00
2023-01-22T14:02:21.661Z,5.10
2023-01-22T14:05:27.267Z,5.00
2023-01-22T14:08:13.979Z,5.00
2023-01-22T14:11:00.332Z,5.00
2023-01-22T14:13:48.151Z,4.90
2023-01-22T14:16:40.637Z,4.90
2023-01-22T14:19:25.774Z,5.00
2023-01-22T14:22:11.672Z,5.00
2023-01-22T14:24:57.233Z,5.00
2023-01-22T14:27:50.978Z,5.00
2023-01-22T14:30:36.566Z,5.00
2023-01-22T14:33:33.901Z,4.90
2023-01-22T14:36:20.384Z,4.90
2023-01-22T14:39:07.119Z,4.80
2023-01-22T14:41:54.918Z,4.70
2023-01-22T14:44:40.374Z,4.70
2023-01-22T14:47:25.893Z,4.70
2023-01-22T14:50:11.819Z,4.70
2023-01-22T14:52:57.502Z,4.70
2023-01-22T14:55:43.176Z,4.60
2023-01-22T14:58:31.033Z,4.70
2023-01-22T15:01:25.724Z,4.60
2023-01-22T15:04:11.166Z,4.60
2023-01-22T15:06:57.172Z,4.60
2023-01-22T15:09:43.728Z,4.60
2023-01-22T15:12:29.303Z,4.50
2023-01-22T15:15:15.997Z,4.50
2023-01-22T15:18:01.533Z,4.50
2023-01-22T15:20:49.502Z,4.50
2023-01-22T15:23:34.949Z,4.60
2023-01-22T15:26:28.099Z,4.60
2023-01-22T15:29:16.536Z,4.50
2023-01-22T15:32:01.921Z,4.50
2023-01-22T15:34:49.910Z,4.50
2023-01-22T15:37:35.222Z,4.50
2023-01-22T15:40:23.019Z,4.40
2023-01-22T15:43:08.620Z,4.40
2023-01-22T15:45:54.119Z,4.40
2023-01-22T15:48:42.428Z,4.40
2023-01-22T15:51:37.190Z,4.30
2023-01-22T15:54:24.899Z,4.30
2023-01-22T15:57:12.382Z,4.20
2023-01-22T16:00:00.832Z,4.20
2023-01-22T16:02:46.179Z,4.20
2023-01-22T16:05:36.716Z,4.20
2023-01-22T16:08:22.008Z,4.10
2023-01-22T16:11:21.444Z,4.20
2023-01-22T16:14:09.682Z,4.20
2023-01-22T16:17:00.808Z,4.20
2023-01-22T16:19:46.072Z,4.20
2023-01-22T16:22:33.875Z,4.20
2023-01-22T16:25:19.821Z,4.20
2023-01-22T16:28:05.528Z,4.10
2023-01-22T16:30:51.576Z,4.20
2023-01-22T16:33:39.402Z,4.20
2023-01-22T16:36:27.353Z,4.20
2023-01-22T16:39:19.601Z,4.20
2023-01-22T16:42:05.068Z,4.20
2023-01-22T16:44:50.722Z,4.30
2023-01-22T16:47:39.208Z,4.20
2023-01-22T16:50:28.183Z,4.20
2023-01-22T16:53:13.665Z,4.20
2023-01-22T16:55:59.145Z,4.20
2023-01-22T16:58:44.705Z,4.20
2023-01-22T17:01:30.646Z,4.20
2023-01-22T17:04:16.361Z,4.20
2023-01-22T17:07:01.886Z,4.20
2023-01-22T17:09:47.576Z,4.20
2023-01-22T17:12:34.104Z,4.20
2023-01-22T17:15:19.484Z,4.20
2023-01-22T17:18:05.079Z,4.20
2023-01-22T17:21:01.935Z,4.20
2023-01-22T17:23:47.551Z,4.20
2023-01-22T17:26:32.949Z,4.20
2023-01-22T17:29:19.383Z,4.20
2023-01-22T17:32:05.767Z,4.20
2023-01-22T17:34:54.563Z,4.20
2023-01-22T17:37:39.707Z,4.30
2023-01-22T17:40:25.406Z,4.30
2023-01-22T17:43:20.968Z,4.30
2023-01-22T17:46:09.428Z,4.30
2023-01-22T17:48:59.529Z,4.30
2023-01-22T17:51:48.173Z,4.30
2023-01-22T17:54:36.429Z,4.30
2023-01-22T17:57:21.721Z,4.30
2023-01-22T18:00:14.218Z,4.40
2023-01-22T18:03:02.759Z,4.30
2023-01-22T18:05:48.095Z,4.30
2023-01-22T18:08:37.689Z,4.30
2023-01-22T18:11:27.732Z,4.30
2023-01-22T18:14:18.278Z,4.30
2023-01-22T18:17:03.569Z,4.30
2023-01-22T18:19:49.100Z,4.30
2023-01-22T18:22:34.691Z,4.30
2023-01-22T18:25:20.571Z,4.30
2023-01-22T18:28:06.195Z,4.40
2023-01-22T18:30:52.965Z,4.40
2023-01-22T18:33:39.456Z,4.40
2023-01-22T18:36:29.374Z,4.40
2023-01-22T18:39:18.132Z,4.40
2023-01-22T18:42:15.979Z,4.40
2023-01-22T18:45:01.390Z,4.40
2023-01-22T18:47:54.032Z,4.40
2023-01-22T18:50:39.920Z,4.40
2023-01-22T18:53:25.515Z,4.40
2023-01-22T18:56:31.988Z,4.40
2023-01-22T18:59:17.613Z,4.40
2023-01-22T19:02:03.998Z,4.40
2023-01-22T19:04:49.351Z,4.40
2023-01-22T19:07:38.068Z,4.50
2023-01-22T19:10:24.961Z,4.50
2023-01-22T19:13:11.919Z,4.50
2023-01-22T19:16:02.850Z,4.50
2023-01-22T19:18:48.896Z,4.50
2023-01-22T19:21:34.542Z,4.50
2023-01-22T19:24:26.530Z,4.50
2023-01-22T19:27:12.581Z,4.50
2023-01-22T19:29:58.240Z,4.50
2023-01-22T19:32:46.859Z,4.50
2023-01-22T19:35:32.233Z,4.60
2023-01-22T19:38:17.827Z,4.50
2023-01-22T19:41:03.979Z,4.60
2023-01-22T19:44:02.543Z,4.60
2023-01-22T19:46:48.094Z,4.60
2023-01-22T19:49:33.424Z,4.60
2023-01-22T19:52:19.675Z,4.60
2023-01-22T19:55:05.464Z,4.60
2023-01-22T19:57:55.937Z,4.50
2023-01-22T20:00:41.157Z,4.50
2023-01-22T20:03:27.280Z,4.50
2023-01-22T20:06:19.665Z,4.50
2023-01-22T20:09:05.428Z,4.50
2023-01-22T20:11:55.098Z,4.50
2023-01-22T20:14:43.892Z,4.50
2023-01-22T20:17:30.208Z,4.60
2023-01-22T20:20:15.843Z,4.50
2023-01-22T20:23:01.447Z,4.60
2023-01-22T20:25:46.675Z,4.50
2023-01-22T20:28:33.453Z,4.50
2023-01-22T20:31:25.114Z,4.50
2023-01-22T20:34:12.206Z,4.60
2023-01-22T20:36:57.780Z,4.50
2023-01-22T20:39:43.664Z,4.50
2023-01-22T20:42:29.275Z,4.60
2023-01-22T20:45:14.943Z,4.60
2023-01-22T20:48:03.420Z,4.60
2023-01-22T20:50:48.523Z,4.60
2023-01-22T20:53:34.130Z,4.60
2023-01-22T20:56:27.326Z,4.60
2023-01-22T20:59:17.366Z,4.60
2023-01-22T21:02:03.020Z,4.60
2023-01-22T21:04:52.688Z,4.60
2023-01-22T21:07:38.471Z,4.60
2023-01-22T21:10:24.151Z,4.60
2023-01-22T21:13:09.680Z,4.70
2023-01-22T21:15:55.781Z,4.70
2023-01-22T21:18:44.408Z,4.60
2023-01-22T21:21:31.426Z,4.70
2023-01-22T21:24:19.487Z,4.70
2023-01-22T21:27:05.149Z,4.70
2023-01-22T21:29:51.828Z,4.70
2023-01-22T21:32:37.041Z,4.70
2023-01-22T21:35:25.320Z,4.70
2023-01-22T21:38:10.664Z,4.70
2023-01-22T21:41:12.486Z,4.70
2023-01-22T21:44:16.095Z,4.80
2023-01-22T21:47:04.310Z,4.70
2023-01-22T21:49:52.858Z,4.70
2023-01-22T21:52:38.123Z,4.80
2023-01-22T21:55:23.946Z,4.70
2023-01-22T21:58:12.007Z,4.80
2023-01-22T22:01:07.031Z,4.80
2023-01-22T22:04:02.601Z,4.80
2023-01-22T22:06:48.612Z,4.80
2023-01-22T22:09:34.219Z,4.80
2023-01-22T22:12:22.364Z,4.80
2023-01-22T22:15:15.508Z,4.80
2023-01-22T22:18:00.838Z,4.80
2023-01-22T22:20:46.288Z,4.90
2023-01-22T22:23:32.777Z,4.90
2023-01-22T22:26:18.467Z,4.90
2023-01-22T22:29:05.985Z,4.90
2023-01-22T22:31:51.416Z,4.90
2023-01-22T22:34:36.749Z,4.90
2023-01-22T22:37:22.221Z,4.90
2023-01-22T22:40:10.946Z,4.90
2023-01-22T22:43:02.443Z,4.90
2023-01-22T22:45:48.227Z,4.90
2023-01-22T22:48:34.151Z,4.90
2023-01-22T22:51:25.159Z,4.90
2023-01-22T22:54:17.886Z,4.90
2023-01-22T22:57:06.172Z,4.90
2023-01-22T22:59:54.654Z,4.90
2023-01-22T23:02:40.149Z,4.90
2023-01-22T23:05:25.395Z,4.90
2023-01-22T23:08:13.566Z,4.90
2023-01-22T23:11:03.921Z,4.90
2023-01-22T23:13:49.748Z,4.90
2023-01-22T23:16:37.829Z,4.90
2023-01-22T23:19:25.947Z,4.90
2023-01-22T23:22:14.014Z,4.90
2023-01-22T23:24:59.319Z,4.90
2023-01-22T23:27:45.358Z,4.90
2023-01-22T23:30:30.620Z,4.90
2023-01-22T23:33:16.707Z,4.90
2023-01-22T23:36:13.590Z,4.90
2023-01-22T23:38:59.052Z,4.90
2023-01-22T23:41:45.688Z,4.90
2023-01-22T23:44:30.987Z,4.90
2023-01-22T23:47:16.527Z,4.90
2023-01-22T23:50:09.074Z,4.90
2023-01-22T23:52:54.521Z,4.90
2023-01-22T23:56:05.053Z,4.90
2023-01-22T23:58:52.697Z,4.90
